Time;durP1;ratioP1;P1;durP2;ratioP2;P2;SDS_P1;SDS_P2;PMS_P1;PMS_P2;Temp;Humidity;BMP_temperature;BMP_pressure;BME280_temperature;BME280_humidity;BME280_pressure;Samples;Min_cycle;Max_cycle;Signal;HPM_P1;HPM_P2
2022/06/18 00:01:33;;;;;;;2.13;1.50;;;;;;;;;;4944072;28;93262;-70
2022/06/18 00:04:02;;;;;;;2.03;1.50;;;;;;;;;;4944941;28;91822;-70
2022/06/18 00:06:32;;;;;;;1.67;1.30;;;;;;;;;;4944310;28;88387;-70
2022/06/18 00:09:00;;;;;;;2.07;1.60;;;;;;;;;;4944384;28;88712;-69
2022/06/18 00:14:15;;;;;;;1.30;1.20;;;;;;;;;;4944329;28;90221;-70
2022/06/18 00:16:44;;;;;;;1.77;1.30;;;;;;;;;;4975410;28;88513;-70
2022/06/18 00:19:12;;;;;;;1.87;1.23;;;;;;;;;;4944457;28;88349;-71
2022/06/18 00:21:42;;;;;;;2.80;1.30;;;;;;;;;;4954683;28;93845;-70
2022/06/18 00:24:17;;;;;;;2.23;1.50;;;;;;;;;;4954308;28;89128;-71
2022/06/18 00:26:45;;;;;;;3.30;1.33;;;;;;;;;;4947501;28;88487;-70
2022/06/18 00:29:14;;;;;;;1.20;1.10;;;;;;;;;;4925747;28;88674;-70
2022/06/18 00:31:43;;;;;;;1.07;0.90;;;;;;;;;;4939379;28;90030;-70
2022/06/18 00:34:12;;;;;;;6.07;1.60;;;;;;;;;;4928631;28;88419;-70
2022/06/18 00:36:42;;;;;;;2.10;1.50;;;;;;;;;;4923968;28;88472;-70
2022/06/18 00:39:14;;;;;;;2.07;1.47;;;;;;;;;;4924566;28;88595;-69
2022/06/18 00:41:43;;;;;;;3.00;1.67;;;;;;;;;;4924714;28;90662;-70
2022/06/18 00:44:14;;;;;;;2.23;1.17;;;;;;;;;;4924956;28;88902;-70
2022/06/18 00:46:44;;;;;;;2.30;1.13;;;;;;;;;;4929103;28;88620;-69
2022/06/18 00:49:13;;;;;;;1.40;1.30;;;;;;;;;;4929216;28;88334;-69
2022/06/18 00:51:43;;;;;;;2.00;1.40;;;;;;;;;;4924940;28;89862;-69
2022/06/18 00:54:13;;;;;;;2.30;1.30;;;;;;;;;;4942918;28;88840;-70
2022/06/18 00:56:53;;;;;;;2.73;1.20;;;;;;;;;;4942296;28;88504;-71
2022/06/18 00:59:25;;;;;;;2.47;1.30;;;;;;;;;;4941963;28;88847;-70
2022/06/18 01:01:54;;;;;;;1.47;1.37;;;;;;;;;;4942704;28;88590;-71
2022/06/18 01:04:26;;;;;;;2.03;1.40;;;;;;;;;;4924564;28;89406;-70
2022/06/18 01:07:01;;;;;;;2.60;1.50;;;;;;;;;;4918926;28;88544;-70
2022/06/18 01:09:29;;;;;;;2.03;1.37;;;;;;;;;;4942054;28;88721;-70
2022/06/18 01:11:58;;;;;;;1.87;1.50;;;;;;;;;;4942529;28;89901;-70
2022/06/18 01:14:26;;;;;;;1.47;1.23;;;;;;;;;;4940904;28;89530;-70
2022/06/18 01:16:55;;;;;;;1.77;1.23;;;;;;;;;;4926400;28;88437;-71
2022/06/18 01:19:26;;;;;;;1.33;1.20;;;;;;;;;;4939268;28;88469;-70
2022/06/18 01:21:56;;;;;;;2.30;1.27;;;;;;;;;;4932510;28;90697;-70
2022/06/18 01:24:32;;;;;;;1.63;1.23;;;;;;;;;;4941559;28;89508;-70
2022/06/18 01:27:01;;;;;;;2.13;1.20;;;;;;;;;;4936891;28;88492;-70
2022/06/18 01:29:29;;;;;;;2.83;1.30;;;;;;;;;;4925131;28;88631;-70
2022/06/18 01:31:58;;;;;;;1.77;1.67;;;;;;;;;;4942742;28;90015;-70
2022/06/18 01:34:26;;;;;;;3.33;1.50;;;;;;;;;;4942348;28;90143;-70
2022/06/18 01:36:54;;;;;;;7.10;1.80;;;;;;;;;;4938888;28;88464;-70
2022/06/18 01:39:24;;;;;;;1.80;1.40;;;;;;;;;;4933855;28;88599;-70
2022/06/18 01:41:56;;;;;;;1.30;1.20;;;;;;;;;;4942126;28;91042;-69
2022/06/18 01:44:25;;;;;;;3.77;1.40;;;;;;;;;;4935396;28;89049;-71
2022/06/18 01:46:54;;;;;;;2.40;1.57;;;;;;;;;;4936990;28;88526;-69
2022/06/18 01:49:25;;;;;;;5.73;1.90;;;;;;;;;;4941234;28;88437;-70
2022/06/18 01:51:53;;;;;;;2.97;1.50;;;;;;;;;;4923372;28;92311;-70
2022/06/18 01:54:22;;;;;;;4.37;1.47;;;;;;;;;;4933456;28;89129;-70
2022/06/18 01:56:51;;;;;;;3.23;1.57;;;;;;;;;;4923890;28;88508;-70
2022/06/18 01:59:22;;;;;;;3.97;1.33;;;;;;;;;;4923967;28;88733;-70
2022/06/18 02:01:50;;;;;;;1.67;1.20;;;;;;;;;;4940730;28;90911;-70
2022/06/18 02:04:19;;;;;;;3.90;1.40;;;;;;;;;;4928980;28;90059;-69
2022/06/18 02:06:48;;;;;;;3.17;1.50;;;;;;;;;;4937783;28;88225;-69
2022/06/18 02:09:18;;;;;;;2.43;1.40;;;;;;;;;;4925138;28;88669;-70
2022/06/18 02:11:47;;;;;;;1.93;1.50;;;;;;;;;;4940735;28;90013;-70
2022/06/18 02:14:16;;;;;;;4.53;1.50;;;;;;;;;;4925543;28;89743;-71
2022/06/18 02:16:46;;;;;;;8.83;1.40;;;;;;;;;;4923433;28;88310;-70
2022/06/18 02:19:15;;;;;;;2.13;1.57;;;;;;;;;;4930343;28;88806;-71
2022/06/18 02:21:44;;;;;;;3.07;1.37;;;;;;;;;;4928770;28;90711;-70
2022/06/18 02:24:13;;;;;;;1.37;1.20;;;;;;;;;;4940873;28;88950;-70
2022/06/18 02:26:41;;;;;;;2.53;1.40;;;;;;;;;;4940041;28;88742;-71
2022/06/18 02:29:10;;;;;;;1.67;1.43;;;;;;;;;;4941062;28;88586;-70
2022/06/18 02:31:45;;;;;;;3.73;1.70;;;;;;;;;;4929683;28;89378;-70
2022/06/18 02:34:16;;;;;;;4.40;1.57;;;;;;;;;;4931543;28;88910;-70
2022/06/18 02:36:44;;;;;;;1.63;1.43;;;;;;;;;;4923127;28;88645;-70
2022/06/18 02:39:15;;;;;;;2.90;1.53;;;;;;;;;;4927270;28;88458;-70
2022/06/18 02:41:43;;;;;;;2.77;1.50;;;;;;;;;;4940642;28;92698;-71
2022/06/18 02:44:11;;;;;;;4.43;1.40;;;;;;;;;;4926452;28;89044;-70
2022/06/18 02:46:40;;;;;;;1.80;1.30;;;;;;;;;;4933688;28;88470;-70
2022/06/18 02:49:08;;;;;;;1.73;1.53;;;;;;;;;;4922670;28;88679;-70
2022/06/18 02:51:38;;;;;;;1.67;1.40;;;;;;;;;;4927381;28;89060;-70
2022/06/18 02:54:06;;;;;;;6.27;1.30;;;;;;;;;;4936405;28;88762;-70
2022/06/18 02:56:35;;;;;;;2.93;1.60;;;;;;;;;;4938678;28;88378;-71
2022/06/18 02:59:04;;;;;;;2.07;1.50;;;;;;;;;;4940108;28;88181;-70
2022/06/18 03:01:33;;;;;;;1.63;1.10;;;;;;;;;;4939944;28;89510;-70
2022/06/18 03:04:02;;;;;;;3.33;1.33;;;;;;;;;;4937437;28;88829;-69
2022/06/18 03:06:31;;;;;;;2.30;1.30;;;;;;;;;;4943295;28;89490;-71
2022/06/18 03:09:00;;;;;;;1.67;1.40;;;;;;;;;;4942055;28;89398;-71
2022/06/18 03:14:15;;;;;;;1.70;1.37;;;;;;;;;;4942539;28;88533;-71
2022/06/18 03:16:44;;;;;;;2.00;1.77;;;;;;;;;;4940541;28;88528;-69
2022/06/18 03:19:13;;;;;;;2.53;2.27;;;;;;;;;;4943842;28;88588;-70
2022/06/18 03:21:42;;;;;;;6.00;1.83;;;;;;;;;;4940205;28;92502;-70
2022/06/18 03:24:13;;;;;;;4.20;2.07;;;;;;;;;;4939657;28;89229;-69
2022/06/18 03:26:41;;;;;;;2.83;1.70;;;;;;;;;;4943078;28;88439;-70
2022/06/18 03:29:16;;;;;;;2.13;1.80;;;;;;;;;;4944329;28;88576;-69
2022/06/18 03:31:45;;;;;;;2.57;1.67;;;;;;;;;;4942723;28;90767;-70
2022/06/18 03:34:13;;;;;;;5.57;2.47;;;;;;;;;;4942253;28;89899;-69
2022/06/18 03:36:42;;;;;;;2.20;2.00;;;;;;;;;;4941177;28;88643;-71
2022/06/18 03:39:12;;;;;;;4.00;2.47;;;;;;;;;;4943100;28;88609;-69
2022/06/18 03:41:40;;;;;;;5.70;2.50;;;;;;;;;;4942835;28;89828;-69
2022/06/18 03:44:09;;;;;;;3.40;2.53;;;;;;;;;;4943503;28;90011;-71
2022/06/18 03:46:38;;;;;;;4.07;2.40;;;;;;;;;;4926148;28;88987;-70
2022/06/18 03:49:06;;;;;;;5.93;2.90;;;;;;;;;;4923737;28;88801;-70
2022/06/18 03:51:35;;;;;;;5.73;3.10;;;;;;;;;;4939660;28;89624;-69
2022/06/18 03:54:03;;;;;;;3.93;2.17;;;;;;;;;;4941178;28;90626;-70
2022/06/18 03:56:33;;;;;;;4.20;2.40;;;;;;;;;;4941130;28;88430;-70
2022/06/18 03:59:02;;;;;;;2.70;2.30;;;;;;;;;;4926547;28;88729;-71
2022/06/18 04:01:30;;;;;;;5.43;2.30;;;;;;;;;;4936584;28;90807;-70
2022/06/18 04:03:59;;;;;;;4.37;2.00;;;;;;;;;;4930002;28;89736;-71
2022/06/18 04:06:28;;;;;;;4.23;2.20;;;;;;;;;;4925685;28;88981;-71
2022/06/18 04:08:56;;;;;;;5.03;2.20;;;;;;;;;;4928061;28;88474;-71
2022/06/18 04:11:24;;;;;;;3.10;2.07;;;;;;;;;;4925060;28;90725;-71
2022/06/18 04:13:55;;;;;;;7.97;2.17;;;;;;;;;;4935445;28;89905;-70
2022/06/18 04:16:23;;;;;;;6.43;2.30;;;;;;;;;;4942676;28;89020;-69
2022/06/18 04:18:52;;;;;;;7.40;2.40;;;;;;;;;;4934118;28;88414;-70
2022/06/18 04:21:20;;;;;;;6.53;2.63;;;;;;;;;;4923577;28;89589;-69
2022/06/18 04:23:48;;;;;;;2.13;1.77;;;;;;;;;;4933996;28;90105;-70
2022/06/18 04:26:17;;;;;;;3.90;2.07;;;;;;;;;;4928491;28;88556;-70
2022/06/18 04:28:46;;;;;;;5.83;2.20;;;;;;;;;;4936354;28;88479;-70
2022/06/18 04:31:16;;;;;;;4.03;2.17;;;;;;;;;;4933471;28;91402;-70
2022/06/18 04:33:44;;;;;;;3.07;1.67;;;;;;;;;;4925049;28;89935;-69
2022/06/18 04:36:20;;;;;;;4.87;2.17;;;;;;;;;;4936624;28;88473;-71
2022/06/18 04:38:48;;;;;;;2.70;1.83;;;;;;;;;;4940391;28;88510;-70
2022/06/18 04:41:16;;;;;;;3.30;1.67;;;;;;;;;;4941355;28;89567;-70
2022/06/18 04:43:45;;;;;;;6.27;2.27;;;;;;;;;;4934351;28;89692;-70
2022/06/18 04:46:13;;;;;;;3.87;1.90;;;;;;;;;;4932551;28;88380;-70
2022/06/18 04:48:43;;;;;;;1.97;1.73;;;;;;;;;;4924345;28;88707;-70
2022/06/18 04:51:11;;;;;;;2.90;1.70;;;;;;;;;;4924634;28;88418;-70
2022/06/18 04:53:40;;;;;;;2.47;1.70;;;;;;;;;;4924982;28;88922;-70
2022/06/18 04:56:08;;;;;;;7.37;2.00;;;;;;;;;;4934906;28;88468;-70
2022/06/18 04:58:36;;;;;;;2.77;1.90;;;;;;;;;;4941486;28;88550;-70
2022/06/18 05:01:05;;;;;;;6.80;2.13;;;;;;;;;;4928244;28;89731;-69
2022/06/18 05:03:33;;;;;;;4.97;2.33;;;;;;;;;;4930882;28;92333;-70
2022/06/18 05:06:03;;;;;;;3.13;1.67;;;;;;;;;;4926510;28;88404;-70
2022/06/18 05:08:31;;;;;;;5.93;1.63;;;;;;;;;;4932301;28;88633;-69
2022/06/18 05:10:59;;;;;;;2.60;1.77;;;;;;;;;;4935933;28;89975;-70
2022/06/18 05:13:29;;;;;;;2.40;1.50;;;;;;;;;;4923427;28;89346;-71
2022/06/18 05:15:57;;;;;;;11.57;2.63;;;;;;;;;;4925012;28;88526;-69
2022/06/18 05:18:26;;;;;;;3.33;2.10;;;;;;;;;;4931468;28;88635;-70
2022/06/18 05:20:54;;;;;;;5.50;1.50;;;;;;;;;;4926958;28;91954;-70
2022/06/18 05:23:24;;;;;;;4.67;1.90;;;;;;;;;;4926633;28;90235;-70
2022/06/18 05:25:53;;;;;;;6.70;2.07;;;;;;;;;;4943234;28;88260;-70
2022/06/18 05:28:21;;;;;;;2.20;1.60;;;;;;;;;;4925817;28;88617;-71
2022/06/18 05:30:49;;;;;;;2.97;2.10;;;;;;;;;;4939113;28;90723;-71
2022/06/18 05:33:18;;;;;;;3.43;2.03;;;;;;;;;;4932475;28;90059;-70
2022/06/18 05:35:46;;;;;;;1.97;1.43;;;;;;;;;;4923980;28;88315;-71
2022/06/18 05:38:15;;;;;;;3.57;1.73;;;;;;;;;;4932243;28;88687;-70
2022/06/18 05:40:45;;;;;;;2.00;1.57;;;;;;;;;;4942335;28;89898;-70
2022/06/18 05:43:13;;;;;;;4.10;1.93;;;;;;;;;;4942842;28;90296;-71
2022/06/18 05:45:42;;;;;;;3.97;2.53;;;;;;;;;;4942678;28;88182;-70
2022/06/18 05:48:11;;;;;;;3.27;1.70;;;;;;;;;;4941736;28;88648;-70
2022/06/18 05:50:40;;;;;;;4.13;2.30;;;;;;;;;;4942211;28;89421;-71
2022/06/18 05:53:08;;;;;;;5.00;1.80;;;;;;;;;;4942381;28;90357;-71
2022/06/18 05:55:36;;;;;;;4.13;1.87;;;;;;;;;;4942770;28;88307;-71
2022/06/18 05:58:06;;;;;;;2.97;1.67;;;;;;;;;;4943083;28;88566;-70
2022/06/18 06:00:34;;;;;;;2.30;1.83;;;;;;;;;;4942571;28;90636;-70
2022/06/18 06:03:03;;;;;;;3.47;2.00;;;;;;;;;;4942545;28;90161;-69
2022/06/18 06:05:31;;;;;;;6.83;1.83;;;;;;;;;;4942590;28;88614;-68
2022/06/18 06:07:59;;;;;;;4.40;2.07;;;;;;;;;;4941748;28;88852;-68
2022/06/18 06:13:18;;;;;;;3.70;1.80;;;;;;;;;;4941436;28;91722;-68
2022/06/18 06:15:46;;;;;;;2.30;2.10;;;;;;;;;;4942476;28;88307;-68
2022/06/18 06:18:15;;;;;;;4.80;1.70;;;;;;;;;;4941927;28;88546;-67
2022/06/18 06:20:44;;;;;;;6.23;2.20;;;;;;;;;;4942219;28;90252;-68
2022/06/18 06:23:12;;;;;;;5.70;2.00;;;;;;;;;;4941856;28;89522;-68
2022/06/18 06:25:41;;;;;;;3.80;1.77;;;;;;;;;;4942073;28;88445;-68
2022/06/18 06:28:13;;;;;;;1.97;1.53;;;;;;;;;;4941972;28;88409;-67
2022/06/18 06:30:43;;;;;;;4.83;2.13;;;;;;;;;;4929938;28;93109;-68
2022/06/18 06:33:12;;;;;;;4.03;2.10;;;;;;;;;;4922780;28;90019;-68
2022/06/18 06:35:40;;;;;;;5.50;1.90;;;;;;;;;;4932922;28;88388;-68
2022/06/18 06:38:08;;;;;;;4.20;2.20;;;;;;;;;;4936087;28;88621;-69
2022/06/18 06:40:37;;;;;;;3.50;1.90;;;;;;;;;;4927096;28;89257;-72
2022/06/18 06:43:07;;;;;;;4.57;2.03;;;;;;;;;;4923188;28;88490;-72
2022/06/18 06:45:35;;;;;;;7.27;1.90;;;;;;;;;;4932842;28;88529;-72
2022/06/18 06:48:05;;;;;;;1.97;1.77;;;;;;;;;;4939453;28;88402;-73
2022/06/18 06:50:34;;;;;;;3.67;1.67;;;;;;;;;;4937566;28;88472;-71
2022/06/18 06:53:02;;;;;;;3.33;2.20;;;;;;;;;;4958641;28;93061;-72
2022/06/18 06:58:17;;;;;;;4.83;2.00;;;;;;;;;;4931428;28;88705;-68
2022/06/18 07:00:46;;;;;;;4.27;1.87;;;;;;;;;;4959834;28;89468;-69
2022/06/18 07:03:16;;;;;;;4.10;1.90;;;;;;;;;;4953070;28;90022;-69
2022/06/18 07:05:45;;;;;;;4.43;2.50;;;;;;;;;;4957149;28;88380;-69
2022/06/18 07:08:13;;;;;;;3.50;2.00;;;;;;;;;;4949913;28;88457;-70
2022/06/18 07:10:43;;;;;;;3.23;1.83;;;;;;;;;;4925459;28;92365;-68
2022/06/18 07:13:11;;;;;;;9.33;2.10;;;;;;;;;;4933760;28;90190;-72
2022/06/18 07:15:40;;;;;;;3.63;2.10;;;;;;;;;;4926441;28;88276;-69
2022/06/18 07:18:11;;;;;;;2.07;1.83;;;;;;;;;;4926231;28;89087;-72
2022/06/18 07:20:44;;;;;;;2.10;1.80;;;;;;;;;;4928158;28;90075;-70
2022/06/18 07:23:13;;;;;;;4.17;1.90;;;;;;;;;;4927509;28;89261;-70
2022/06/18 07:25:41;;;;;;;5.67;1.77;;;;;;;;;;4925847;28;88620;-70
2022/06/18 07:28:10;;;;;;;6.27;1.93;;;;;;;;;;4938371;28;88516;-71
2022/06/18 07:30:38;;;;;;;4.40;1.50;;;;;;;;;;4943589;28;90433;-70
2022/06/18 07:33:07;;;;;;;7.33;2.30;;;;;;;;;;4959849;28;88825;-73
2022/06/18 07:35:36;;;;;;;5.37;1.90;;;;;;;;;;4942009;28;88368;-67
2022/06/18 07:38:06;;;;;;;4.23;1.93;;;;;;;;;;4931000;28;88514;-69
2022/06/18 07:40:41;;;;;;;4.53;2.33;;;;;;;;;;4940219;28;90891;-70
2022/06/18 07:43:12;;;;;;;8.47;1.67;;;;;;;;;;4933538;28;90421;-69
2022/06/18 07:45:40;;;;;;;1.97;1.20;;;;;;;;;;4936504;28;88727;-73
2022/06/18 07:48:09;;;;;;;3.50;1.73;;;;;;;;;;4940399;28;88375;-73
2022/06/18 07:50:37;;;;;;;3.27;1.43;;;;;;;;;;4934872;28;90293;-72
2022/06/18 07:53:07;;;;;;;3.77;1.83;;;;;;;;;;4943745;28;89566;-72
2022/06/18 07:55:36;;;;;;;2.97;1.60;;;;;;;;;;4939833;28;88525;-73
2022/06/18 07:58:04;;;;;;;2.77;1.60;;;;;;;;;;4944215;28;88626;-72
2022/06/18 08:00:32;;;;;;;4.00;1.93;;;;;;;;;;4942065;28;92815;-74
2022/06/18 08:03:01;;;;;;;4.70;1.80;;;;;;;;;;4933000;28;91271;-74
2022/06/18 08:05:29;;;;;;;2.00;1.80;;;;;;;;;;4934914;28;88629;-72
2022/06/18 08:07:58;;;;;;;3.23;1.70;;;;;;;;;;4931727;28;88638;-73
2022/06/18 08:10:48;;;;;;;3.33;1.67;;;;;;;;;;4943224;28;91700;-74
2022/06/18 08:13:17;;;;;;;3.30;1.70;;;;;;;;;;4934613;28;88491;-73
2022/06/18 08:15:49;;;;;;;4.60;1.50;;;;;;;;;;4940188;28;88745;-73
2022/06/18 08:18:17;;;;;;;3.33;1.50;;;;;;;;;;4938241;28;88622;-70
2022/06/18 08:20:55;;;;;;;2.30;1.53;;;;;;;;;;4936757;28;89380;-71
2022/06/18 08:23:24;;;;;;;1.50;1.40;;;;;;;;;;4944794;28;90161;-70
2022/06/18 08:25:53;;;;;;;4.30;1.40;;;;;;;;;;4938857;28;88505;-71
2022/06/18 08:28:22;;;;;;;1.93;1.40;;;;;;;;;;4941224;28;88706;-70
2022/06/18 08:30:51;;;;;;;1.17;0.80;;;;;;;;;;4945382;28;88898;-70
2022/06/18 08:33:19;;;;;;;3.67;1.67;;;;;;;;;;4934576;28;91327;-70
2022/06/18 08:35:47;;;;;;;3.33;1.27;;;;;;;;;;4932460;28;89062;-71
2022/06/18 08:38:17;;;;;;;2.30;1.60;;;;;;;;;;4937093;28;88650;-69
2022/06/18 08:40:49;;;;;;;2.23;1.30;;;;;;;;;;4932092;28;93947;-70
2022/06/18 08:43:23;;;;;;;2.90;1.17;;;;;;;;;;4930375;28;89419;-69
2022/06/18 08:45:53;;;;;;;1.60;1.50;;;;;;;;;;4925256;28;88538;-71
2022/06/18 08:48:36;;;;;;;3.27;1.60;;;;;;;;;;4928865;28;88805;-70
2022/06/18 08:51:08;;;;;;;5.47;1.40;;;;;;;;;;4923197;28;89424;-70
2022/06/18 08:53:40;;;;;;;2.80;1.13;;;;;;;;;;4942101;28;88817;-70
2022/06/18 08:56:09;;;;;;;3.40;0.90;;;;;;;;;;4932766;28;88629;-71
2022/06/18 08:58:41;;;;;;;2.70;1.00;;;;;;;;;;4937369;28;88534;-69
2022/06/18 09:01:11;;;;;;;1.30;1.20;;;;;;;;;;4942642;28;92504;-71
2022/06/18 09:03:42;;;;;;;1.50;1.03;;;;;;;;;;4936378;28;90340;-71
2022/06/18 09:06:15;;;;;;;3.07;0.77;;;;;;;;;;4923973;28;88410;-69
2022/06/18 09:08:52;;;;;;;1.63;1.00;;;;;;;;;;4941365;28;88324;-69
2022/06/18 09:11:25;;;;;;;3.17;1.10;;;;;;;;;;4942979;28;90640;-70
2022/06/18 09:13:57;;;;;;;1.77;0.83;;;;;;;;;;4935894;28;88807;-70
2022/06/18 09:16:27;;;;;;;6.37;1.57;;;;;;;;;;4937521;28;89901;-71
2022/06/18 09:18:56;;;;;;;1.30;0.90;;;;;;;;;;4927607;28;88698;-70
2022/06/18 09:21:25;;;;;;;2.03;1.00;;;;;;;;;;4935541;28;89049;-71
2022/06/18 09:23:54;;;;;;;2.33;1.53;;;;;;;;;;4927644;28;90053;-70
2022/06/18 09:26:23;;;;;;;2.87;1.30;;;;;;;;;;4923441;28;88367;-69
2022/06/18 09:28:53;;;;;;;2.30;1.00;;;;;;;;;;4935909;28;88608;-69
2022/06/18 09:31:24;;;;;;;2.27;1.20;;;;;;;;;;4943378;28;90138;-69
2022/06/18 09:33:54;;;;;;;2.10;1.30;;;;;;;;;;4928568;28;88945;-71
2022/06/18 09:36:23;;;;;;;2.90;1.03;;;;;;;;;;4928849;28;88652;-69
2022/06/18 09:38:58;;;;;;;2.50;1.00;;;;;;;;;;4929742;28;88916;-71
2022/06/18 09:41:27;;;;;;;3.20;1.03;;;;;;;;;;4923477;28;92625;-70
2022/06/18 09:43:58;;;;;;;2.00;1.00;;;;;;;;;;4926702;28;89400;-69
2022/06/18 09:46:28;;;;;;;2.00;1.10;;;;;;;;;;4932135;28;88684;-69
2022/06/18 09:48:56;;;;;;;3.80;1.40;;;;;;;;;;4926416;28;88611;-70
2022/06/18 09:51:28;;;;;;;4.13;1.47;;;;;;;;;;4938327;28;90196;-70
2022/06/18 09:53:56;;;;;;;2.73;1.30;;;;;;;;;;4926045;28;88978;-71
2022/06/18 09:56:25;;;;;;;2.90;1.40;;;;;;;;;;4938226;28;88375;-70
2022/06/18 09:58:57;;;;;;;1.80;1.40;;;;;;;;;;4912274;28;88626;-70
2022/06/18 10:01:28;;;;;;;4.93;1.70;;;;;;;;;;4935182;28;90471;-70
2022/06/18 10:06:56;;;;;;;2.67;1.43;;;;;;;;;;4935851;28;88256;-66
2022/06/18 10:09:38;;;;;;;4.83;1.47;;;;;;;;;;4938720;28;88805;-74
2022/06/18 10:12:13;;;;;;;3.13;1.30;;;;;;;;;;4937693;28;89850;-74
2022/06/18 10:14:43;;;;;;;1.73;1.30;;;;;;;;;;4940794;28;90247;-74
2022/06/18 10:17:17;;;;;;;2.77;1.10;;;;;;;;;;4940613;28;88595;-74
2022/06/18 10:19:49;;;;;;;1.23;1.07;;;;;;;;;;4940510;28;88592;-74
2022/06/18 10:22:23;;;;;;;3.63;1.60;;;;;;;;;;4942160;28;90653;-74
2022/06/18 10:24:53;;;;;;;2.53;1.40;;;;;;;;;;4930257;28;89028;-74
2022/06/18 10:27:23;;;;;;;6.03;1.30;;;;;;;;;;4924951;28;89093;-74
2022/06/18 10:29:53;;;;;;;1.60;0.93;;;;;;;;;;4927404;28;88257;-74
2022/06/18 10:32:29;;;;;;;1.63;1.23;;;;;;;;;;4938958;28;90478;-73
2022/06/18 10:35:03;;;;;;;4.33;1.30;;;;;;;;;;4938044;28;90246;-73
2022/06/18 10:37:33;;;;;;;2.13;1.10;;;;;;;;;;4923497;28;88311;-73
2022/06/18 10:40:24;;;;;;;3.33;1.47;;;;;;;;;;4930404;28;88681;-73
2022/06/18 10:42:57;;;;;;;1.70;1.20;;;;;;;;;;4937214;28;88282;-80
2022/06/18 10:45:32;;;;;;;0.93;0.83;;;;;;;;;;4940567;28;89829;-79
2022/06/18 10:48:02;;;;;;;1.67;1.07;;;;;;;;;;4943240;28;88847;-89
2022/06/18 10:50:41;;;;;;;2.40;1.27;;;;;;;;;;4939164;28;88593;-92
2022/06/18 10:53:13;;;;;;;1.10;0.83;;;;;;;;;;4928457;28;92915;-94
2022/06/18 10:55:45;;;;;;;1.77;1.20;;;;;;;;;;4929182;28;89489;-93
2022/06/18 10:58:14;;;;;;;2.43;0.90;;;;;;;;;;4944135;28;88420;-94
2022/06/18 11:00:45;;;;;;;3.10;1.00;;;;;;;;;;4944637;28;88479;-87
2022/06/18 11:03:20;;;;;;;3.47;1.57;;;;;;;;;;4942646;28;93673;-70
2022/06/18 11:05:48;;;;;;;1.93;1.70;;;;;;;;;;4927626;28;89421;-69
2022/06/18 11:08:20;;;;;;;4.80;1.67;;;;;;;;;;4922371;28;88927;-69
2022/06/18 11:10:51;;;;;;;4.97;1.67;;;;;;;;;;4929603;28;89507;-67
2022/06/18 11:13:20;;;;;;;6.30;1.07;;;;;;;;;;4930572;28;90450;-66
2022/06/18 11:15:48;;;;;;;2.63;1.50;;;;;;;;;;4927679;28;90125;-67
2022/06/18 11:18:17;;;;;;;2.10;1.50;;;;;;;;;;4924071;28;88605;-67
2022/06/18 11:21:00;;;;;;;8.00;1.87;;;;;;;;;;4930867;28;88625;-67
2022/06/18 11:23:28;;;;;;;4.43;1.77;;;;;;;;;;4938417;28;90024;-67
2022/06/18 11:26:22;;;;;;;1.63;1.53;;;;;;;;;;4939712;28;88508;-67
2022/06/18 11:28:51;;;;;;;4.93;1.53;;;;;;;;;;4932321;28;88586;-65
2022/06/18 11:31:23;;;;;;;1.57;1.10;;;;;;;;;;4937560;28;88596;-67
2022/06/18 11:33:56;;;;;;;4.77;1.73;;;;;;;;;;4936485;28;89560;-71
2022/06/18 11:36:34;;;;;;;3.13;1.53;;;;;;;;;;4929316;28;89027;-72
2022/06/18 11:39:03;;;;;;;2.63;2.07;;;;;;;;;;4925967;28;88592;-72
2022/06/18 11:41:33;;;;;;;1.87;1.70;;;;;;;;;;4939225;28;88351;-73
2022/06/18 11:44:02;;;;;;;4.60;1.70;;;;;;;;;;4931208;28;88651;-73
2022/06/18 11:46:31;;;;;;;1.97;1.40;;;;;;;;;;4928425;28;88875;-74
2022/06/18 11:49:01;;;;;;;2.57;1.50;;;;;;;;;;4943584;28;88393;-73
2022/06/18 11:51:30;;;;;;;1.50;1.30;;;;;;;;;;4940254;28;88414;-74
2022/06/18 11:54:03;;;;;;;4.80;1.33;;;;;;;;;;4928170;28;91895;-73
2022/06/18 11:56:33;;;;;;;4.80;1.30;;;;;;;;;;4943060;28;89350;-74
2022/06/18 11:59:03;;;;;;;1.43;1.20;;;;;;;;;;4944339;28;88831;-73
2022/06/18 12:01:33;;;;;;;1.57;1.47;;;;;;;;;;4942385;28;88549;-75
2022/06/18 12:04:03;;;;;;;1.30;1.20;;;;;;;;;;4943513;28;89296;-73
2022/06/18 12:06:35;;;;;;;1.50;1.30;;;;;;;;;;4942865;28;92307;-73
2022/06/18 12:09:25;;;;;;;1.97;1.60;;;;;;;;;;4943956;28;88415;-73
2022/06/18 12:11:58;;;;;;;2.63;1.40;;;;;;;;;;4934936;28;88516;-73
2022/06/18 12:14:28;;;;;;;4.87;1.80;;;;;;;;;;4928461;28;92174;-73
2022/06/18 12:16:58;;;;;;;7.43;1.50;;;;;;;;;;4943245;28;90063;-73
2022/06/18 12:19:27;;;;;;;4.03;1.40;;;;;;;;;;4940446;28;88432;-73
2022/06/18 12:21:57;;;;;;;1.60;1.27;;;;;;;;;;4941019;28;88418;-73
2022/06/18 12:24:29;;;;;;;3.33;1.87;;;;;;;;;;4942414;28;89877;-74
2022/06/18 12:26:58;;;;;;;2.00;1.50;;;;;;;;;;4940473;28;89477;-72
2022/06/18 12:29:33;;;;;;;3.33;1.60;;;;;;;;;;4941709;28;88645;-73
2022/06/18 12:32:05;;;;;;;1.40;1.30;;;;;;;;;;4940245;28;88772;-73
2022/06/18 12:34:35;;;;;;;2.13;1.30;;;;;;;;;;4940813;28;90578;-74
2022/06/18 12:37:04;;;;;;;1.23;1.13;;;;;;;;;;4941656;28;92717;-73
2022/06/18 12:39:37;;;;;;;3.80;1.70;;;;;;;;;;4942154;28;89015;-72
2022/06/18 12:42:08;;;;;;;3.60;1.30;;;;;;;;;;4935702;28;88525;-73
2022/06/18 12:44:37;;;;;;;1.50;1.20;;;;;;;;;;4934811;28;88405;-73
2022/06/18 12:47:08;;;;;;;1.83;1.10;;;;;;;;;;4932666;28;88950;-73
2022/06/18 12:49:38;;;;;;;2.33;1.27;;;;;;;;;;4929019;28;88534;-73
2022/06/18 12:52:08;;;;;;;1.10;0.93;;;;;;;;;;4930050;28;90103;-74
2022/06/18 12:54:41;;;;;;;0.97;0.90;;;;;;;;;;4930418;28;89739;-73
2022/06/18 12:57:14;;;;;;;2.57;1.23;;;;;;;;;;4926281;28;89054;-72
2022/06/18 12:59:45;;;;;;;2.73;1.00;;;;;;;;;;4929661;28;88962;-72
2022/06/18 13:02:15;;;;;;;1.43;0.90;;;;;;;;;;4929759;28;89466;-73
2022/06/18 13:04:58;;;;;;;1.73;1.10;;;;;;;;;;4929522;28;90516;-73
2022/06/18 13:07:30;;;;;;;2.07;0.97;;;;;;;;;;4926212;28;89965;-73
2022/06/18 13:10:03;;;;;;;0.80;0.80;;;;;;;;;;4928835;28;89504;-73
2022/06/18 13:12:45;;;;;;;1.80;1.00;;;;;;;;;;4928177;28;90134;-74
2022/06/18 13:15:18;;;;;;;2.20;1.03;;;;;;;;;;4928268;28;92817;-74
2022/06/18 13:17:47;;;;;;;1.17;0.73;;;;;;;;;;4940280;28;89390;-74
2022/06/18 13:20:15;;;;;;;2.00;0.80;;;;;;;;;;4947176;28;88496;-74
2022/06/18 13:22:44;;;;;;;1.00;0.90;;;;;;;;;;4940679;28;89626;-74
2022/06/18 13:28:12;;;;;;;2.50;0.90;;;;;;;;;;4939338;28;93092;-73
2022/06/18 13:30:44;;;;;;;1.10;0.80;;;;;;;;;;4942585;28;88442;-74
2022/06/18 13:33:14;;;;;;;9.03;1.10;;;;;;;;;;4943354;28;88311;-74
2022/06/18 13:35:45;;;;;;;1.73;0.90;;;;;;;;;;4943242;28;92097;-73
2022/06/18 13:38:15;;;;;;;0.93;0.63;;;;;;;;;;4942982;28;88399;-74
2022/06/18 13:40:47;;;;;;;1.33;0.80;;;;;;;;;;4937104;28;88541;-73
2022/06/18 13:43:18;;;;;;;2.07;0.80;;;;;;;;;;4925256;28;88615;-73
2022/06/18 13:45:48;;;;;;;0.60;0.60;;;;;;;;;;4923636;28;94054;-73
2022/06/18 13:48:24;;;;;;;0.43;0.43;;;;;;;;;;4934017;28;88718;-74
2022/06/18 13:50:53;;;;;;;4.67;0.90;;;;;;;;;;4924941;28;88483;-73
2022/06/18 13:53:25;;;;;;;2.00;0.57;;;;;;;;;;4924209;28;89644;-75
2022/06/18 13:55:54;;;;;;;2.67;0.80;;;;;;;;;;4928631;28;89776;-74
2022/06/18 13:58:23;;;;;;;2.00;0.80;;;;;;;;;;4931407;28;89550;-73
2022/06/18 14:00:52;;;;;;;0.87;0.80;;;;;;;;;;4923453;28;88464;-74
2022/06/18 14:03:23;;;;;;;0.70;0.70;;;;;;;;;;4924420;28;88569;-74
2022/06/18 14:05:53;;;;;;;1.60;0.93;;;;;;;;;;4924208;28;92245;-74
2022/06/18 14:08:23;;;;;;;5.47;1.00;;;;;;;;;;4923459;28;90268;-74
2022/06/18 14:10:52;;;;;;;5.60;0.70;;;;;;;;;;4936548;28;88561;-73
2022/06/18 14:13:25;;;;;;;1.97;0.80;;;;;;;;;;4942042;28;88629;-74
2022/06/18 14:15:59;;;;;;;3.87;0.80;;;;;;;;;;4923420;28;90526;-74
2022/06/18 14:18:28;;;;;;;2.53;1.00;;;;;;;;;;4924249;28;88784;-74
2022/06/18 14:20:59;;;;;;;1.23;0.80;;;;;;;;;;4922785;28;89135;-71
2022/06/18 14:23:28;;;;;;;1.47;0.60;;;;;;;;;;4924878;28;88405;-70
2022/06/18 14:26:03;;;;;;;2.00;0.83;;;;;;;;;;4929432;28;93372;-68
2022/06/18 14:28:34;;;;;;;0.50;0.50;;;;;;;;;;4933355;28;89042;-68
2022/06/18 14:31:14;;;;;;;1.23;0.77;;;;;;;;;;4943023;28;88416;-68
2022/06/18 14:33:45;;;;;;;1.63;0.73;;;;;;;;;;4941889;28;88299;-71
2022/06/18 14:36:19;;;;;;;0.50;0.50;;;;;;;;;;4923373;28;90063;-72
2022/06/18 14:38:48;;;;;;;0.90;0.80;;;;;;;;;;4924981;28;90061;-72
2022/06/18 14:44:21;;;;;;;0.90;0.77;;;;;;;;;;4941449;28;88562;-71
2022/06/18 14:46:58;;;;;;;5.80;1.50;;;;;;;;;;4922778;28;89726;-71
2022/06/18 14:49:31;;;;;;;1.20;0.83;;;;;;;;;;4926884;28;90114;-73
2022/06/18 14:52:02;;;;;;;1.17;1.07;;;;;;;;;;4938452;28;88376;-71
2022/06/18 14:54:58;;;;;;;1.57;0.80;;;;;;;;;;4941423;28;88513;-70
2022/06/18 14:57:45;;;;;;;1.53;0.93;;;;;;;;;;4942297;28;89822;-71
2022/06/18 15:00:17;;;;;;;5.80;0.80;;;;;;;;;;4935920;28;88766;-72
2022/06/18 15:02:47;;;;;;;3.10;0.87;;;;;;;;;;4941709;28;88271;-71
2022/06/18 15:05:20;;;;;;;1.10;0.80;;;;;;;;;;4944415;28;88530;-69
2022/06/18 15:07:48;;;;;;;0.73;0.73;;;;;;;;;;4945135;28;90761;-72
2022/06/18 15:10:18;;;;;;;3.90;0.97;;;;;;;;;;4942665;28;89604;-73
2022/06/18 15:12:50;;;;;;;0.83;0.83;;;;;;;;;;4941520;28;88440;-72
2022/06/18 15:15:24;;;;;;;1.00;0.90;;;;;;;;;;4944309;28;88494;-69
2022/06/18 15:18:15;;;;;;;1.47;0.93;;;;;;;;;;4944565;28;89716;-67
2022/06/18 15:20:53;;;;;;;1.53;1.00;;;;;;;;;;4925607;28;91046;-73
2022/06/18 15:23:30;;;;;;;2.20;1.20;;;;;;;;;;4936768;28;88971;-72